sensor_id;sensor_type;location;lat;lon;timestamp;pressure;altitude;pressure_sealevel;temperature;humidity
3150;BME280;32503;47.748;8.960;2023-04-26T00:01:59;96885.69;;;9.79;69.41
3150;BME280;32503;47.748;8.960;2023-04-26T00:04:26;96884.59;;;9.80;69.24
3150;BME280;32503;47.748;8.960;2023-04-26T00:06:54;96882.13;;;9.75;69.01
3150;BME280;32503;47.748;8.960;2023-04-26T00:09:21;96892.06;;;9.71;68.40
3150;BME280;32503;47.748;8.960;2023-04-26T00:11:48;96899.28;;;9.67;69.14
3150;BME280;32503;47.748;8.960;2023-04-26T00:14:15;96896.41;;;9.60;69.06
3150;BME280;32503;47.748;8.960;2023-04-26T00:16:44;96901.63;;;9.53;69.46
3150;BME280;32503;47.748;8.960;2023-04-26T00:19:12;96904.66;;;9.51;69.20
3150;BME280;32503;47.748;8.960;2023-04-26T00:21:39;96896.03;;;9.45;68.75
3150;BME280;32503;47.748;8.960;2023-04-26T00:24:07;96905.19;;;9.41;68.99
3150;BME280;32503;47.748;8.960;2023-04-26T00:26:34;96898.97;;;9.40;69.36
3150;BME280;32503;47.748;8.960;2023-04-26T00:29:02;96911.69;;;9.40;69.61
3150;BME280;32503;47.748;8.960;2023-04-26T00:31:30;96900.81;;;9.36;69.59
3150;BME280;32503;47.748;8.960;2023-04-26T00:33:58;96903.06;;;9.34;69.65
3150;BME280;32503;47.748;8.960;2023-04-26T00:36:25;96902.53;;;9.28;69.59
3150;BME280;32503;47.748;8.960;2023-04-26T00:38:52;96905.16;;;9.25;69.36
3150;BME280;32503;47.748;8.960;2023-04-26T00:41:19;96905.06;;;9.21;69.97
3150;BME280;32503;47.748;8.960;2023-04-26T00:43:46;96907.66;;;9.18;69.45
3150;BME280;32503;47.748;8.960;2023-04-26T00:46:13;96904.50;;;9.16;69.51
3150;BME280;32503;47.748;8.960;2023-04-26T00:48:41;96905.78;;;9.06;69.51
3150;BME280;32503;47.748;8.960;2023-04-26T00:51:09;96916.13;;;9.04;70.21
3150;BME280;32503;47.748;8.960;2023-04-26T00:53:37;96911.06;;;9.02;69.97
3150;BME280;32503;47.748;8.960;2023-04-26T00:56:06;96913.97;;;9.09;69.86
3150;BME280;32503;47.748;8.960;2023-04-26T00:58:36;96914.41;;;9.11;69.81
3150;BME280;32503;47.748;8.960;2023-04-26T01:01:03;96912.94;;;9.14;69.44
3150;BME280;32503;47.748;8.960;2023-04-26T01:03:32;96915.09;;;9.08;69.23
3150;BME280;32503;47.748;8.960;2023-04-26T01:05:59;96921.63;;;9.07;69.38
3150;BME280;32503;47.748;8.960;2023-04-26T01:08:28;96914.00;;;8.97;69.33
3150;BME280;32503;47.748;8.960;2023-04-26T01:10:55;96925.00;;;9.04;69.53
3150;BME280;32503;47.748;8.960;2023-04-26T01:13:22;96926.25;;;8.95;69.65
3150;BME280;32503;47.748;8.960;2023-04-26T01:15:51;96909.75;;;8.84;70.12
3150;BME280;32503;47.748;8.960;2023-04-26T01:18:19;96914.47;;;8.87;70.02
3150;BME280;32503;47.748;8.960;2023-04-26T01:20:46;96922.78;;;8.94;70.14
3150;BME280;32503;47.748;8.960;2023-04-26T01:23:15;96924.78;;;8.97;69.86
3150;BME280;32503;47.748;8.960;2023-04-26T01:25:42;96921.75;;;8.99;70.35
3150;BME280;32503;47.748;8.960;2023-04-26T01:28:09;96916.16;;;8.91;70.41
3150;BME280;32503;47.748;8.960;2023-04-26T01:30:36;96929.41;;;8.97;70.49
3150;BME280;32503;47.748;8.960;2023-04-26T01:33:03;96928.38;;;9.01;70.39
3150;BME280;32503;47.748;8.960;2023-04-26T01:35:31;96930.81;;;9.06;70.10
3150;BME280;32503;47.748;8.960;2023-04-26T01:37:58;96918.47;;;9.05;70.51
3150;BME280;32503;47.748;8.960;2023-04-26T01:40:26;96918.00;;;9.03;70.76
3150;BME280;32503;47.748;8.960;2023-04-26T01:42:53;96924.13;;;9.00;70.94
3150;BME280;32503;47.748;8.960;2023-04-26T01:45:20;96918.38;;;9.02;71.14
3150;BME280;32503;47.748;8.960;2023-04-26T01:47:47;96915.09;;;9.08;70.80
3150;BME280;32503;47.748;8.960;2023-04-26T01:50:14;96907.66;;;9.18;70.45
3150;BME280;32503;47.748;8.960;2023-04-26T01:52:41;96914.84;;;9.14;70.65
3150;BME280;32503;47.748;8.960;2023-04-26T01:55:09;96908.81;;;9.04;70.91
3150;BME280;32503;47.748;8.960;2023-04-26T01:57:37;96902.66;;;9.04;70.97
3150;BME280;32503;47.748;8.960;2023-04-26T02:00:06;96904.19;;;9.05;71.04
3150;BME280;32503;47.748;8.960;2023-04-26T02:02:34;96911.28;;;9.09;70.62
3150;BME280;32503;47.748;8.960;2023-04-26T02:05:01;96895.75;;;9.06;70.35
3150;BME280;32503;47.748;8.960;2023-04-26T02:07:28;96899.59;;;9.05;70.30
3150;BME280;32503;47.748;8.960;2023-04-26T02:09:55;96897.34;;;9.07;70.42
3150;BME280;32503;47.748;8.960;2023-04-26T02:12:22;96900.28;;;9.02;70.58
3150;BME280;32503;47.748;8.960;2023-04-26T02:14:51;96890.84;;;8.96;70.66
3150;BME280;32503;47.748;8.960;2023-04-26T02:17:18;96880.69;;;8.89;70.81
3150;BME280;32503;47.748;8.960;2023-04-26T02:19:46;96882.47;;;8.85;70.66
3150;BME280;32503;47.748;8.960;2023-04-26T02:22:13;96875.88;;;8.83;70.96
3150;BME280;32503;47.748;8.960;2023-04-26T02:24:40;96877.31;;;8.80;70.87
3150;BME280;32503;47.748;8.960;2023-04-26T02:27:07;96875.66;;;8.76;70.85
3150;BME280;32503;47.748;8.960;2023-04-26T02:29:34;96877.00;;;8.69;71.14
3150;BME280;32503;47.748;8.960;2023-04-26T02:32:03;96883.78;;;8.63;71.01
3150;BME280;32503;47.748;8.960;2023-04-26T02:34:31;96884.91;;;8.62;71.07
3150;BME280;32503;47.748;8.960;2023-04-26T02:36:58;96885.22;;;8.61;70.61
3150;BME280;32503;47.748;8.960;2023-04-26T02:39:25;96887.50;;;8.59;70.18
3150;BME280;32503;47.748;8.960;2023-04-26T02:41:52;96875.13;;;8.58;70.57
3150;BME280;32503;47.748;8.960;2023-04-26T02:44:19;96876.16;;;8.53;70.53
3150;BME280;32503;47.748;8.960;2023-04-26T02:46:46;96882.56;;;8.48;70.47
3150;BME280;32503;47.748;8.960;2023-04-26T02:49:14;96878.84;;;8.41;70.07
3150;BME280;32503;47.748;8.960;2023-04-26T02:51:42;96881.53;;;8.41;69.99
3150;BME280;32503;47.748;8.960;2023-04-26T02:54:09;96880.19;;;8.34;69.68
3150;BME280;32503;47.748;8.960;2023-04-26T02:56:36;96886.72;;;8.33;69.89
3150;BME280;32503;47.748;8.960;2023-04-26T02:59:03;96884.25;;;8.28;70.04
3150;BME280;32503;47.748;8.960;2023-04-26T03:01:30;96889.41;;;8.21;70.10
3150;BME280;32503;47.748;8.960;2023-04-26T03:03:57;96890.09;;;8.18;70.01
3150;BME280;32503;47.748;8.960;2023-04-26T03:06:25;96885.59;;;8.10;70.12
3150;BME280;32503;47.748;8.960;2023-04-26T03:08:53;96893.44;;;8.03;70.80
3150;BME280;32503;47.748;8.960;2023-04-26T03:11:20;96889.09;;;7.98;70.70
3150;BME280;32503;47.748;8.960;2023-04-26T03:13:47;96882.00;;;7.93;70.96
3150;BME280;32503;47.748;8.960;2023-04-26T03:16:14;96887.84;;;7.95;71.53
3150;BME280;32503;47.748;8.960;2023-04-26T03:18:41;96879.97;;;7.90;72.02
3150;BME280;32503;47.748;8.960;2023-04-26T03:21:08;96891.56;;;7.91;72.12
3150;BME280;32503;47.748;8.960;2023-04-26T03:23:37;96888.75;;;8.00;71.93
3150;BME280;32503;47.748;8.960;2023-04-26T03:26:04;96884.81;;;7.97;71.42
3150;BME280;32503;47.748;8.960;2023-04-26T03:28:31;96883.59;;;7.94;72.18
3150;BME280;32503;47.748;8.960;2023-04-26T03:30:58;96885.38;;;7.90;71.78
3150;BME280;32503;47.748;8.960;2023-04-26T03:33:25;96886.84;;;7.88;72.22
3150;BME280;32503;47.748;8.960;2023-04-26T03:35:52;96896.59;;;7.92;72.52
3150;BME280;32503;47.748;8.960;2023-04-26T03:38:19;96892.56;;;7.86;71.98
3150;BME280;32503;47.748;8.960;2023-04-26T03:40:48;96889.88;;;7.98;71.79
3150;BME280;32503;47.748;8.960;2023-04-26T03:43:15;96894.13;;;8.00;72.02
3150;BME280;32503;47.748;8.960;2023-04-26T03:45:42;96892.56;;;7.98;72.05
3150;BME280;32503;47.748;8.960;2023-04-26T03:48:12;96894.59;;;8.02;71.64
3150;BME280;32503;47.748;8.960;2023-04-26T03:50:39;96894.25;;;8.03;71.02
3150;BME280;32503;47.748;8.960;2023-04-26T03:53:06;96888.75;;;8.12;70.99
3150;BME280;32503;47.748;8.960;2023-04-26T03:55:33;96885.59;;;8.10;71.15
3150;BME280;32503;47.748;8.960;2023-04-26T03:58:01;96886.28;;;8.07;70.76
3150;BME280;32503;47.748;8.960;2023-04-26T04:00:32;96882.00;;;8.06;70.79
3150;BME280;32503;47.748;8.960;2023-04-26T04:02:59;96883.16;;;8.05;71.19
3150;BME280;32503;47.748;8.960;2023-04-26T04:05:26;96881.34;;;8.09;71.23
3150;BME280;32503;47.748;8.960;2023-04-26T04:07:53;96884.69;;;8.06;71.92
3150;BME280;32503;47.748;8.960;2023-04-26T04:10:21;96875.84;;;8.05;71.78
3150;BME280;32503;47.748;8.960;2023-04-26T04:12:49;96883.25;;;8.08;71.49
3150;BME280;32503;47.748;8.960;2023-04-26T04:15:19;96883.25;;;8.08;71.50
3150;BME280;32503;47.748;8.960;2023-04-26T04:17:46;96882.44;;;8.08;71.69
3150;BME280;32503;47.748;8.960;2023-04-26T04:20:13;96878.66;;;8.09;72.54
3150;BME280;32503;47.748;8.960;2023-04-26T04:22:40;96879.22;;;8.14;71.56
3150;BME280;32503;47.748;8.960;2023-04-26T04:25:08;96881.34;;;8.21;72.13
3150;BME280;32503;47.748;8.960;2023-04-26T04:27:36;96889.31;;;8.18;71.86
3150;BME280;32503;47.748;8.960;2023-04-26T04:30:05;96891.66;;;8.19;71.73
3150;BME280;32503;47.748;8.960;2023-04-26T04:32:35;96888.28;;;8.22;71.66
3150;BME280;32503;47.748;8.960;2023-04-26T04:35:04;96897.28;;;8.26;71.43
3150;BME280;32503;47.748;8.960;2023-04-26T04:37:31;96903.78;;;8.25;71.05
3150;BME280;32503;47.748;8.960;2023-04-26T04:39:59;96895.13;;;8.20;71.38
3150;BME280;32503;47.748;8.960;2023-04-26T04:42:26;96886.28;;;8.19;71.53
3150;BME280;32503;47.748;8.960;2023-04-26T04:44:54;96893.22;;;8.20;71.71
3150;BME280;32503;47.748;8.960;2023-04-26T04:47:21;96893.88;;;8.29;71.07
3150;BME280;32503;47.748;8.960;2023-04-26T04:49:50;96896.72;;;8.33;70.33
3150;BME280;32503;47.748;8.960;2023-04-26T04:52:17;96896.72;;;8.33;70.73
3150;BME280;32503;47.748;8.960;2023-04-26T04:54:46;96901.28;;;8.32;70.74
3150;BME280;32503;47.748;8.960;2023-04-26T04:57:13;96895.25;;;8.35;70.23
3150;BME280;32503;47.748;8.960;2023-04-26T04:59:41;96898.81;;;8.40;70.23
3150;BME280;32503;47.748;8.960;2023-04-26T05:02:08;96899.03;;;8.34;70.42
3150;BME280;32503;47.748;8.960;2023-04-26T05:04:36;96902.22;;;8.37;70.37
3150;BME280;32503;47.748;8.960;2023-04-26T05:07:04;96907.13;;;8.34;70.20
3150;BME280;32503;47.748;8.960;2023-04-26T05:09:31;96909.38;;;8.32;70.90
3150;BME280;32503;47.748;8.960;2023-04-26T05:11:58;96901.84;;;8.26;70.86
3150;BME280;32503;47.748;8.960;2023-04-26T05:14:26;96906.34;;;8.34;70.85
3150;BME280;32503;47.748;8.960;2023-04-26T05:16:53;96908.72;;;8.35;70.83
3150;BME280;32503;47.748;8.960;2023-04-26T05:19:20;96919.94;;;8.38;71.11
3150;BME280;32503;47.748;8.960;2023-04-26T05:21:47;96919.25;;;8.41;70.69
3150;BME280;32503;47.748;8.960;2023-04-26T05:24:15;96915.22;;;8.47;70.96
3150;BME280;32503;47.748;8.960;2023-04-26T05:26:42;96919.03;;;8.58;70.93
3150;BME280;32503;47.748;8.960;2023-04-26T05:29:09;96928.66;;;8.71;71.37
3150;BME280;32503;47.748;8.960;2023-04-26T05:31:36;96924.91;;;9.01;71.42
3150;BME280;32503;47.748;8.960;2023-04-26T05:34:03;96926.09;;;9.03;70.75
3150;BME280;32503;47.748;8.960;2023-04-26T05:36:30;96911.16;;;9.06;70.50
3150;BME280;32503;47.748;8.960;2023-04-26T05:38:58;96921.81;;;9.15;70.14
3150;BME280;32503;47.748;8.960;2023-04-26T05:41:26;96917.19;;;9.15;70.48
3150;BME280;32503;47.748;8.960;2023-04-26T05:43:53;96922.94;;;9.14;70.19
3150;BME280;32503;47.748;8.960;2023-04-26T05:46:20;96931.03;;;9.14;70.31
3150;BME280;32503;47.748;8.960;2023-04-26T05:48:47;96929.22;;;9.18;70.73
3150;BME280;32503;47.748;8.960;2023-04-26T05:51:14;96924.72;;;9.22;70.15
3150;BME280;32503;47.748;8.960;2023-04-26T05:53:41;96932.47;;;9.23;70.11
3150;BME280;32503;47.748;8.960;2023-04-26T05:56:08;96931.41;;;9.28;69.89
3150;BME280;32503;47.748;8.960;2023-04-26T05:58:36;96932.56;;;9.27;70.02
3150;BME280;32503;47.748;8.960;2023-04-26T06:01:04;96934.81;;;9.25;70.11
3150;BME280;32503;47.748;8.960;2023-04-26T06:03:31;96934.13;;;9.28;69.72
3150;BME280;32503;47.748;8.960;2023-04-26T06:05:58;96933.53;;;9.35;69.55
3150;BME280;32503;47.748;8.960;2023-04-26T06:08:26;96936.75;;;9.40;69.91
3150;BME280;32503;47.748;8.960;2023-04-26T06:10:53;96931.56;;;9.47;69.56
3150;BME280;32503;47.748;8.960;2023-04-26T06:13:20;96932.53;;;9.55;69.66
3150;BME280;32503;47.748;8.960;2023-04-26T06:15:48;96942.28;;;9.60;69.69
3150;BME280;32503;47.748;8.960;2023-04-26T06:18:15;96932.91;;;9.70;70.14
3150;BME280;32503;47.748;8.960;2023-04-26T06:20:42;96934.59;;;9.74;70.10
3150;BME280;32503;47.748;8.960;2023-04-26T06:23:09;96936.31;;;9.82;69.46
3150;BME280;32503;47.748;8.960;2023-04-26T06:25:36;96934.50;;;9.86;69.93
3150;BME280;32503;47.748;8.960;2023-04-26T06:28:06;96941.28;;;9.80;69.67
3150;BME280;32503;47.748;8.960;2023-04-26T06:30:33;96950.16;;;9.81;70.08
3150;BME280;32503;47.748;8.960;2023-04-26T06:33:02;96951.13;;;9.89;69.77
3150;BME280;32503;47.748;8.960;2023-04-26T06:35:29;96950.16;;;9.97;70.15
3150;BME280;32503;47.748;8.960;2023-04-26T06:37:56;96957.84;;;10.11;69.51
3150;BME280;32503;47.748;8.960;2023-04-26T06:40:23;96957.94;;;10.14;68.55
3150;BME280;32503;47.748;8.960;2023-04-26T06:42:50;96959.84;;;10.14;68.32
3150;BME280;32503;47.748;8.960;2023-04-26T06:45:17;96966.47;;;10.16;67.97
3150;BME280;32503;47.748;8.960;2023-04-26T06:47:44;96962.31;;;10.19;68.65
3150;BME280;32503;47.748;8.960;2023-04-26T06:50:13;96961.88;;;10.17;67.86
3150;BME280;32503;47.748;8.960;2023-04-26T06:52:40;96963.84;;;10.20;67.91
3150;BME280;32503;47.748;8.960;2023-04-26T06:55:09;96957.50;;;10.28;68.04
3150;BME280;32503;47.748;8.960;2023-04-26T06:57:36;96952.38;;;10.39;68.33
3150;BME280;32503;47.748;8.960;2023-04-26T07:00:05;96956.41;;;10.45;67.78
3150;BME280;32503;47.748;8.960;2023-04-26T07:02:34;96946.16;;;10.54;66.98
3150;BME280;32503;47.748;8.960;2023-04-26T07:05:01;96955.38;;;10.69;66.39
3150;BME280;32503;47.748;8.960;2023-04-26T07:07:30;96946.88;;;10.87;66.89
3150;BME280;32503;47.748;8.960;2023-04-26T07:09:57;96956.16;;;11.05;66.00
3150;BME280;32503;47.748;8.960;2023-04-26T07:12:24;96952.09;;;11.15;65.66
3150;BME280;32503;47.748;8.960;2023-04-26T07:14:51;96955.41;;;11.24;63.72
3150;BME280;32503;47.748;8.960;2023-04-26T07:17:18;96942.00;;;11.31;63.72
3150;BME280;32503;47.748;8.960;2023-04-26T07:19:46;96943.97;;;11.54;63.89
3150;BME280;32503;47.748;8.960;2023-04-26T07:22:13;96938.16;;;11.32;61.69
3150;BME280;32503;47.748;8.960;2023-04-26T07:24:41;96940.84;;;11.32;61.37
3150;BME280;32503;47.748;8.960;2023-04-26T07:27:08;96937.59;;;11.66;61.33
3150;BME280;32503;47.748;8.960;2023-04-26T07:29:35;96935.97;;;12.27;61.75
3150;BME280;32503;47.748;8.960;2023-04-26T07:32:03;96936.41;;;12.56;58.98
3150;BME280;32503;47.748;8.960;2023-04-26T07:34:30;96935.38;;;12.37;57.65
3150;BME280;32503;47.748;8.960;2023-04-26T07:36:57;96933.34;;;12.87;58.35
3150;BME280;32503;47.748;8.960;2023-04-26T07:39:24;96936.81;;;13.45;56.04
3150;BME280;32503;47.748;8.960;2023-04-26T07:41:52;96934.34;;;13.70;54.63
3150;BME280;32503;47.748;8.960;2023-04-26T07:44:19;96936.50;;;13.91;54.78
3150;BME280;32503;47.748;8.960;2023-04-26T07:46:47;96931.31;;;14.20;54.26
3150;BME280;32503;47.748;8.960;2023-04-26T07:49:14;96926.91;;;14.53;53.74
3150;BME280;32503;47.748;8.960;2023-04-26T07:51:43;96924.66;;;14.62;52.19
3150;BME280;32503;47.748;8.960;2023-04-26T07:54:10;96917.91;;;15.11;52.75
3150;BME280;32503;47.748;8.960;2023-04-26T07:56:37;96923.47;;;15.44;51.38
3150;BME280;32503;47.748;8.960;2023-04-26T07:59:06;96925.84;;;15.60;51.27
3150;BME280;32503;47.748;8.960;2023-04-26T08:01:33;96926.34;;;15.90;50.70
3150;BME280;32503;47.748;8.960;2023-04-26T08:04:00;96925.94;;;15.81;47.89
3150;BME280;32503;47.748;8.960;2023-04-26T08:06:27;96915.22;;;15.19;47.69
3150;BME280;32503;47.748;8.960;2023-04-26T08:08:54;96917.94;;;15.15;48.23
3150;BME280;32503;47.748;8.960;2023-04-26T08:11:21;96911.84;;;15.58;49.53
3150;BME280;32503;47.748;8.960;2023-04-26T08:13:48;96920.13;;;16.11;48.73
3150;BME280;32503;47.748;8.960;2023-04-26T08:16:17;96920.06;;;16.73;48.01
3150;BME280;32503;47.748;8.960;2023-04-26T08:18:44;96918.34;;;17.33;45.87
3150;BME280;32503;47.748;8.960;2023-04-26T08:21:12;96918.94;;;17.69;44.30
3150;BME280;32503;47.748;8.960;2023-04-26T08:23:39;96923.22;;;17.74;42.85
3150;BME280;32503;47.748;8.960;2023-04-26T08:26:06;96914.88;;;17.99;42.32
3150;BME280;32503;47.748;8.960;2023-04-26T08:28:33;96922.75;;;17.05;41.98
3150;BME280;32503;47.748;8.960;2023-04-26T08:31:01;96920.50;;;16.39;42.98
3150;BME280;32503;47.748;8.960;2023-04-26T08:33:29;96924.78;;;16.04;44.85
3150;BME280;32503;47.748;8.960;2023-04-26T08:35:58;96925.19;;;16.06;45.90
3150;BME280;32503;47.748;8.960;2023-04-26T08:38:26;96924.41;;;16.02;43.88
3150;BME280;32503;47.748;8.960;2023-04-26T08:40:55;96925.19;;;16.27;44.01
3150;BME280;32503;47.748;8.960;2023-04-26T08:43:27;96919.69;;;16.71;43.24
3150;BME280;32503;47.748;8.960;2023-04-26T08:45:55;96922.47;;;16.42;40.96
3150;BME280;32503;47.748;8.960;2023-04-26T08:48:28;96931.41;;;16.10;42.13
3150;BME280;32503;47.748;8.960;2023-04-26T08:51:00;96933.38;;;16.35;42.58
3150;BME280;32503;47.748;8.960;2023-04-26T08:53:29;96927.50;;;16.54;42.42
3150;BME280;32503;47.748;8.960;2023-04-26T08:55:57;96920.47;;;16.53;41.29
3150;BME280;32503;47.748;8.960;2023-04-26T08:58:25;96923.63;;;16.41;41.92
3150;BME280;32503;47.748;8.960;2023-04-26T09:00:52;96930.63;;;16.53;43.54
3150;BME280;32503;47.748;8.960;2023-04-26T09:03:22;96918.47;;;17.00;44.00
3150;BME280;32503;47.748;8.960;2023-04-26T09:05:53;96931.50;;;17.59;44.04
3150;BME280;32503;47.748;8.960;2023-04-26T09:08:20;96917.31;;;17.86;43.30
3150;BME280;32503;47.748;8.960;2023-04-26T09:10:47;96921.69;;;18.29;41.75
3150;BME280;32503;47.748;8.960;2023-04-26T09:13:14;96922.59;;;18.60;40.54
3150;BME280;32503;47.748;8.960;2023-04-26T09:15:42;96920.69;;;18.95;39.34
3150;BME280;32503;47.748;8.960;2023-04-26T09:18:17;96914.56;;;18.80;37.51
3150;BME280;32503;47.748;8.960;2023-04-26T09:20:44;96911.97;;;19.04;38.84
3150;BME280;32503;47.748;8.960;2023-04-26T09:23:13;96910.22;;;19.21;38.95
3150;BME280;32503;47.748;8.960;2023-04-26T09:25:41;96908.41;;;19.41;38.66
3150;BME280;32503;47.748;8.960;2023-04-26T09:28:20;96903.41;;;19.63;37.72
3150;BME280;32503;47.748;8.960;2023-04-26T09:30:47;96905.59;;;19.76;37.50
3150;BME280;32503;47.748;8.960;2023-04-26T09:33:15;96906.22;;;19.87;36.71
3150;BME280;32503;47.748;8.960;2023-04-26T09:35:43;96877.59;;;19.61;35.95
3150;BME280;32503;47.748;8.960;2023-04-26T09:38:13;96901.16;;;19.55;37.11
3150;BME280;32503;47.748;8.960;2023-04-26T09:40:41;96891.91;;;19.45;37.64
3150;BME280;32503;47.748;8.960;2023-04-26T09:43:11;96892.47;;;18.98;38.22
3150;BME280;32503;47.748;8.960;2023-04-26T09:45:49;96895.03;;;18.36;39.49
3150;BME280;32503;47.748;8.960;2023-04-26T09:48:19;96894.00;;;18.19;40.40
3150;BME280;32503;47.748;8.960;2023-04-26T09:50:49;96904.41;;;17.87;40.35
3150;BME280;32503;47.748;8.960;2023-04-26T09:53:32;96900.28;;;17.53;40.82
3150;BME280;32503;47.748;8.960;2023-04-26T09:56:09;96897.03;;;16.81;42.52
3150;BME280;32503;47.748;8.960;2023-04-26T09:58:38;96901.81;;;16.05;42.93
3150;BME280;32503;47.748;8.960;2023-04-26T10:01:06;96890.06;;;15.65;44.20
3150;BME280;32503;47.748;8.960;2023-04-26T10:03:34;96891.59;;;15.51;44.98
3150;BME280;32503;47.748;8.960;2023-04-26T10:06:02;96898.53;;;15.31;44.47
3150;BME280;32503;47.748;8.960;2023-04-26T10:08:31;96888.00;;;15.26;45.44
3150;BME280;32503;47.748;8.960;2023-04-26T10:10:59;96887.69;;;15.45;44.82
3150;BME280;32503;47.748;8.960;2023-04-26T10:13:27;96876.00;;;15.45;45.07
3150;BME280;32503;47.748;8.960;2023-04-26T10:15:54;96895.13;;;15.73;44.39
3150;BME280;32503;47.748;8.960;2023-04-26T10:18:22;96900.66;;;16.27;44.08
3150;BME280;32503;47.748;8.960;2023-04-26T10:20:52;96887.72;;;16.75;42.34
3150;BME280;32503;47.748;8.960;2023-04-26T10:23:23;96879.88;;;16.91;41.25
3150;BME280;32503;47.748;8.960;2023-04-26T10:25:53;96880.28;;;16.82;41.50
3150;BME280;32503;47.748;8.960;2023-04-26T10:28:53;96872.72;;;17.26;41.16
3150;BME280;32503;47.748;8.960;2023-04-26T10:31:21;96873.34;;;17.52;40.76
3150;BME280;32503;47.748;8.960;2023-04-26T10:34:28;96868.19;;;16.73;39.12
3150;BME280;32503;47.748;8.960;2023-04-26T10:37:06;96867.03;;;16.70;40.17
3150;BME280;32503;47.748;8.960;2023-04-26T10:39:34;96869.41;;;16.46;40.38
3150;BME280;32503;47.748;8.960;2023-04-26T10:42:21;96867.13;;;16.41;41.00
3150;BME280;32503;47.748;8.960;2023-04-26T10:44:49;96858.16;;;16.26;39.23
3150;BME280;32503;47.748;8.960;2023-04-26T10:47:27;96863.56;;;16.62;38.67
3150;BME280;32503;47.748;8.960;2023-04-26T10:50:03;96861.50;;;17.02;38.04
3150;BME280;32503;47.748;8.960;2023-04-26T10:52:30;96849.00;;;17.09;35.44
3150;BME280;32503;47.748;8.960;2023-04-26T10:54:58;96856.72;;;17.28;34.17
3150;BME280;32503;47.748;8.960;2023-04-26T10:57:51;96847.16;;;17.58;36.16
3150;BME280;32503;47.748;8.960;2023-04-26T11:00:29;96825.56;;;17.11;35.25
3150;BME280;32503;47.748;8.960;2023-04-26T11:03:04;96839.69;;;16.95;36.80
3150;BME280;32503;47.748;8.960;2023-04-26T11:05:47;96837.13;;;17.40;37.94
3150;BME280;32503;47.748;8.960;2023-04-26T11:08:16;96840.84;;;17.01;38.36
3150;BME280;32503;47.748;8.960;2023-04-26T11:10:49;96837.25;;;17.12;38.22
3150;BME280;32503;47.748;8.960;2023-04-26T11:13:19;96839.25;;;17.04;37.62
3150;BME280;32503;47.748;8.960;2023-04-26T11:15:46;96822.31;;;16.24;38.55
3150;BME280;32503;47.748;8.960;2023-04-26T11:18:20;96830.53;;;15.99;39.70
3150;BME280;32503;47.748;8.960;2023-04-26T11:20:47;96827.41;;;15.86;38.31
3150;BME280;32503;47.748;8.960;2023-04-26T11:23:14;96821.16;;;16.11;39.22
3150;BME280;32503;47.748;8.960;2023-04-26T11:25:43;96819.13;;;16.55;37.56
3150;BME280;32503;47.748;8.960;2023-04-26T11:28:11;96819.81;;;16.91;36.97
3150;BME280;32503;47.748;8.960;2023-04-26T11:30:39;96824.59;;;16.47;36.70
3150;BME280;32503;47.748;8.960;2023-04-26T11:33:15;96818.25;;;16.79;36.93
3150;BME280;32503;47.748;8.960;2023-04-26T11:35:44;96807.38;;;16.68;36.48
3150;BME280;32503;47.748;8.960;2023-04-26T11:38:12;96808.97;;;16.55;35.41
3150;BME280;32503;47.748;8.960;2023-04-26T11:40:40;96811.69;;;16.66;36.29
3150;BME280;32503;47.748;8.960;2023-04-26T11:43:09;96792.28;;;16.32;36.80
3150;BME280;32503;47.748;8.960;2023-04-26T11:45:38;96812.59;;;16.16;37.03
3150;BME280;32503;47.748;8.960;2023-04-26T11:48:09;96814.19;;;15.96;37.14
3150;BME280;32503;47.748;8.960;2023-04-26T11:50:37;96802.06;;;16.22;38.10
3150;BME280;32503;47.748;8.960;2023-04-26T11:53:07;96797.00;;;16.02;37.32
3150;BME280;32503;47.748;8.960;2023-04-26T11:55:34;96810.66;;;15.91;38.69
3150;BME280;32503;47.748;8.960;2023-04-26T11:58:10;96805.56;;;16.22;37.72
3150;BME280;32503;47.748;8.960;2023-04-26T12:00:58;96811.00;;;16.33;37.73
3150;BME280;32503;47.748;8.960;2023-04-26T12:03:30;96812.53;;;16.48;37.31
3150;BME280;32503;47.748;8.960;2023-04-26T12:05:58;96810.91;;;16.65;36.68
3150;BME280;32503;47.748;8.960;2023-04-26T12:08:26;96815.09;;;16.99;35.21
3150;BME280;32503;47.748;8.960;2023-04-26T12:10:55;96819.81;;;16.91;34.24
3150;BME280;32503;47.748;8.960;2023-04-26T12:13:25;96808.06;;;17.01;35.20
3150;BME280;32503;47.748;8.960;2023-04-26T12:15:52;96817.31;;;17.18;35.47
3150;BME280;32503;47.748;8.960;2023-04-26T12:18:20;96823.03;;;16.46;34.76
3150;BME280;32503;47.748;8.960;2023-04-26T12:20:48;96816.09;;;16.20;35.98
3150;BME280;32503;47.748;8.960;2023-04-26T12:23:16;96805.16;;;16.38;36.19
3150;BME280;32503;47.748;8.960;2023-04-26T12:25:53;96805.06;;;16.63;35.45
3150;BME280;32503;47.748;8.960;2023-04-26T12:28:21;96821.38;;;16.85;35.22
3150;BME280;32503;47.748;8.960;2023-04-26T12:30:49;96795.56;;;17.00;35.64
3150;BME280;32503;47.748;8.960;2023-04-26T12:33:16;96819.50;;;17.45;34.79
3150;BME280;32503;47.748;8.960;2023-04-26T12:35:49;96816.25;;;17.65;34.43
3150;BME280;32503;47.748;8.960;2023-04-26T12:38:16;96812.19;;;17.87;34.67
3150;BME280;32503;47.748;8.960;2023-04-26T12:40:44;96810.84;;;18.10;34.61
3150;BME280;32503;47.748;8.960;2023-04-26T12:43:11;96802.84;;;18.26;33.41
3150;BME280;32503;47.748;8.960;2023-04-26T12:45:38;96794.41;;;18.51;33.75
3150;BME280;32503;47.748;8.960;2023-04-26T12:48:06;96794.41;;;18.86;33.85
3150;BME280;32503;47.748;8.960;2023-04-26T12:50:33;96796.75;;;19.14;33.92
3150;BME280;32503;47.748;8.960;2023-04-26T12:53:02;96777.81;;;19.27;33.00
3150;BME280;32503;47.748;8.960;2023-04-26T12:55:30;96792.16;;;19.62;33.00
3150;BME280;32503;47.748;8.960;2023-04-26T12:57:57;96795.47;;;19.77;32.01
3150;BME280;32503;47.748;8.960;2023-04-26T13:00:24;96789.41;;;19.89;32.12
3150;BME280;32503;47.748;8.960;2023-04-26T13:02:51;96786.13;;;19.98;32.48
3150;BME280;32503;47.748;8.960;2023-04-26T13:05:18;96785.72;;;20.00;31.44
3150;BME280;32503;47.748;8.960;2023-04-26T13:07:45;96785.88;;;20.13;31.71
3150;BME280;32503;47.748;8.960;2023-04-26T13:10:14;96778.44;;;20.33;31.19
3150;BME280;32503;47.748;8.960;2023-04-26T13:12:41;96784.28;;;20.35;30.97
3150;BME280;32503;47.748;8.960;2023-04-26T13:15:10;96775.97;;;20.59;30.38
3150;BME280;32503;47.748;8.960;2023-04-26T13:17:37;96774.06;;;20.56;30.04
3150;BME280;32503;47.748;8.960;2023-04-26T13:20:05;96763.16;;;20.52;30.26
3150;BME280;32503;47.748;8.960;2023-04-26T13:22:33;96772.78;;;20.64;30.13
3150;BME280;32503;47.748;8.960;2023-04-26T13:25:00;96777.81;;;20.45;28.83